Time;durP1;ratioP1;P1;durP2;ratioP2;P2;SDS_P1;SDS_P2;PMS_P1;PMS_P2;Temp;Humidity;BMP_temperature;BMP_pressure;BME280_temperature;BME280_humidity;BME280_pressure;Samples;Min_cycle;Max_cycle;Signal;HPM_P1;HPM_P2
2023/05/25 00:00:53;;;;;;;8.25;4.60;;;;;;;;;;480361;29;1230;-73
2023/05/25 00:01:47;;;;;;;10.48;4.68;;;;;;;;;;474221;29;1521;-74
2023/05/25 00:02:35;;;;;;;;;;;;;;;;;;;;;
2023/05/25 00:03:31;;;;;;;8.80;4.55;;;;;;;;;;484939;29;1084;-73
2023/05/25 00:04:25;;;;;;;;;;;;;;;;;;;;;
2023/05/25 00:05:10;;;;;;;8.63;4.55;;;;;;;;;;482968;29;1214;-74
2023/05/25 00:05:26;;;;;;;7.63;4.43;;;;;;;;;;474097;29;1866;-73
2023/05/25 00:05:47;;;;;;;9.10;4.55;;;;;;;;;;485361;29;1293;-74
2023/05/25 00:06:09;;;;;;;9.30;4.68;;;;;;;;;;483858;29;1395;-74
2023/05/25 00:06:39;;;;;;;9.15;4.63;;;;;;;;;;481408;29;1248;-73
2023/05/25 00:07:16;;;;;;;9.45;4.72;;;;;;;;;;487067;29;1496;-74
2023/05/25 00:07:46;;;;;;;11.18;4.88;;;;;;;;;;477004;29;1363;-74
2023/05/25 00:08:21;;;;;;;9.00;4.55;;;;;;;;;;480156;29;1633;-74
2023/05/25 00:08:39;;;;;;;11.50;4.90;;;;;;;;;;485852;29;1323;-74
2023/05/25 00:09:01;;;;;;;10.63;4.88;;;;;;;;;;482072;29;1597;-74
2023/05/25 00:09:34;;;;;;;10.93;4.90;;;;;;;;;;468690;29;1348;-73
2023/05/25 00:10:34;;;;;;;8.00;4.53;;;;;;;;;;478492;29;1241;-74
2023/05/25 00:11:51;;;;;;;8.63;4.63;;;;;;;;;;483676;29;1578;-72
2023/05/25 00:12:13;;;;;;;8.10;4.75;;;;;;;;;;482956;29;1511;-74
2023/05/25 00:12:29;;;;;;;9.07;4.63;;;;;;;;;;477338;29;1402;-73
2023/05/25 00:12:55;;;;;;;9.98;5.00;;;;;;;;;;472419;29;1269;-74
2023/05/25 00:13:47;;;;;;;9.07;4.72;;;;;;;;;;467959;29;1223;-74
2023/05/25 00:14:07;;;;;;;9.32;4.90;;;;;;;;;;480198;29;1109;-74
2023/05/25 00:14:43;;;;;;;8.73;4.60;;;;;;;;;;479408;29;1285;-73
2023/05/25 00:15:28;;;;;;;10.02;4.85;;;;;;;;;;477775;29;1341;-74
2023/05/25 00:15:47;;;;;;;9.98;4.68;;;;;;;;;;476028;29;1474;-74
2023/05/25 00:16:36;;;;;;;8.77;4.50;;;;;;;;;;476676;29;1414;-74
2023/05/25 00:16:58;;;;;;;;;;;;;;;;;;;;;
2023/05/25 00:17:23;;;;;;;10.60;4.97;;;;;;;;;;475687;29;1242;-73
2023/05/25 00:18:03;;;;;;;;;;;;;;;;;;;;;
2023/05/25 00:18:42;;;;;;;10.18;4.82;;;;;;;;;;475308;29;1003;-74
2023/05/25 00:20:57;;;;;;;7.97;4.40;;;;;;;;;;476607;29;1397;-73
2023/05/25 00:21:26;;;;;;;9.68;4.85;;;;;;;;;;470937;29;1342;-74
2023/05/25 00:22:06;;;;;;;9.25;4.82;;;;;;;;;;470656;29;1164;-74
2023/05/25 00:23:06;;;;;;;9.90;4.60;;;;;;;;;;474084;29;1277;-74
2023/05/25 00:23:22;;;;;;;8.88;5.00;;;;;;;;;;480602;29;1222;-74
2023/05/25 00:23:54;;;;;;;9.83;5.17;;;;;;;;;;477436;29;1122;-74
2023/05/25 00:24:42;;;;;;;10.43;5.00;;;;;;;;;;469329;29;1342;-75
2023/05/25 00:25:10;;;;;;;9.30;4.60;;;;;;;;;;480189;29;1709;-73
2023/05/25 00:25:32;;;;;;;8.68;4.70;;;;;;;;;;477586;29;1172;-75
2023/05/25 00:25:59;;;;;;;9.95;5.07;;;;;;;;;;473314;29;1107;-74
2023/05/25 00:27:02;;;;;;;9.98;4.78;;;;;;;;;;477033;29;1172;-73
2023/05/25 00:27:04;;;;;;;8.68;4.78;;;;;;;;;;478833;29;962;-74
2023/05/25 00:27:29;;;;;;;7.60;4.60;;;;;;;;;;469339;29;1305;-74
2023/05/25 00:28:05;;;;;;;9.80;4.72;;;;;;;;;;483614;29;2046;-74
2023/05/25 00:28:26;;;;;;;9.82;5.05;;;;;;;;;;471288;29;1957;-74
2023/05/25 00:29:18;;;;;;;;;;;;;;;;;;;;;
2023/05/25 00:29:40;;;;;;;9.07;4.63;;;;;;;;;;473630;29;1436;-74
2023/05/25 00:30:48;;;;;;;9.68;5.00;;;;;;;;;;487081;29;1391;-73
2023/05/25 00:30:50;;;;;;;9.05;4.88;;;;;;;;;;484505;29;1467;-74
2023/05/25 00:31:08;;;;;;;8.73;4.95;;;;;;;;;;484854;29;1203;-74
2023/05/25 00:31:49;;;;;;;11.30;5.07;;;;;;;;;;479751;29;1175;-74
2023/05/25 00:32:17;;;;;;;10.55;5.10;;;;;;;;;;484925;29;1048;-74
2023/05/25 00:32:46;;;;;;;9.88;4.70;;;;;;;;;;484441;29;1250;-74
2023/05/25 00:33:27;;;;;;;9.80;4.90;;;;;;;;;;485135;29;1429;-74
2023/05/25 00:34:09;;;;;;;10.32;5.20;;;;;;;;;;480301;29;1358;-74
2023/05/25 00:34:25;;;;;;;7.50;4.88;;;;;;;;;;484289;29;1242;-74
2023/05/25 00:34:45;;;;;;;7.60;4.77;;;;;;;;;;487338;29;1369;-74
2023/05/25 00:35:27;;;;;;;8.77;4.80;;;;;;;;;;483439;29;1419;-72
2023/05/25 00:36:02;;;;;;;;;;;;;;;;;;;;;
2023/05/25 00:36:34;;;;;;;9.45;4.80;;;;;;;;;;478194;29;1433;-74
2023/05/25 00:37:15;;;;;;;9.68;5.00;;;;;;;;;;490073;29;1272;-74
2023/05/25 00:38:33;;;;;;;9.50;4.78;;;;;;;;;;489371;29;1256;-74
2023/05/25 00:38:59;;;;;;;8.68;5.05;;;;;;;;;;489319;29;1454;-73
2023/05/25 00:39:31;;;;;;;9.27;5.00;;;;;;;;;;473044;29;1221;-74
2023/05/25 00:39:48;;;;;;;10.95;5.40;;;;;;;;;;472523;29;1516;-74
2023/05/25 00:40:18;;;;;;;10.88;5.35;;;;;;;;;;485390;29;1365;-74
2023/05/25 00:40:43;;;;;;;10.73;5.10;;;;;;;;;;478137;29;1090;-74
2023/05/25 00:41:10;;;;;;;9.10;4.90;;;;;;;;;;477412;29;1529;-73
2023/05/25 00:41:53;;;;;;;9.20;4.97;;;;;;;;;;475536;29;1235;-74
2023/05/25 00:42:10;;;;;;;7.90;4.80;;;;;;;;;;484265;29;1383;-74
2023/05/25 00:42:31;;;;;;;8.02;4.65;;;;;;;;;;488280;29;1166;-73
2023/05/25 00:42:48;;;;;;;9.25;5.00;;;;;;;;;;489377;29;1457;-74
2023/05/25 00:43:33;;;;;;;8.52;4.85;;;;;;;;;;479189;29;1428;-74
2023/05/25 00:44:21;;;;;;;9.38;4.90;;;;;;;;;;489360;29;1619;-73
2023/05/25 00:44:37;;;;;;;9.15;5.18;;;;;;;;;;477625;29;1302;-74
2023/05/25 00:45:13;;;;;;;8.93;4.82;;;;;;;;;;485680;29;1272;-74
2023/05/25 00:45:40;;;;;;;9.27;4.88;;;;;;;;;;490379;29;1499;-74
2023/05/25 00:47:10;;;;;;;8.82;4.90;;;;;;;;;;486317;29;1645;-74
2023/05/25 00:47:10;;;;;;;9.77;5.30;;;;;;;;;;485857;29;1750;-74
2023/05/25 00:47:26;;;;;;;9.93;5.10;;;;;;;;;;487453;29;1307;-74
2023/05/25 00:47:47;;;;;;;9.60;4.90;;;;;;;;;;491013;29;1184;-74
2023/05/25 00:48:06;;;;;;;9.00;5.05;;;;;;;;;;488221;29;1278;-74
2023/05/25 00:48:39;;;;;;;9.10;4.93;;;;;;;;;;478143;29;1900;-74
2023/05/25 00:49:03;;;;;;;9.38;4.70;;;;;;;;;;484673;29;1346;-74
2023/05/25 00:49:34;;;;;;;8.68;4.63;;;;;;;;;;475712;29;1844;-73
2023/05/25 00:49:56;;;;;;;8.50;4.55;;;;;;;;;;490005;29;1669;-74
2023/05/25 00:50:42;;;;;;;9.18;4.68;;;;;;;;;;477018;29;968;-74
2023/05/25 00:51:13;;;;;;;6.88;4.50;;;;;;;;;;480367;29;1730;-74
2023/05/25 00:51:45;;;;;;;9.00;4.88;;;;;;;;;;488392;29;1343;-74
2023/05/25 00:52:25;;;;;;;9.75;5.18;;;;;;;;;;478530;29;1599;-74
2023/05/25 00:53:12;;;;;;;8.45;4.78;;;;;;;;;;483325;29;1366;-74
2023/05/25 00:53:59;;;;;;;8.60;4.50;;;;;;;;;;480704;29;1473;-74
2023/05/25 00:54:36;;;;;;;7.40;4.70;;;;;;;;;;471041;29;1482;-74
2023/05/25 00:54:59;;;;;;;9.32;4.70;;;;;;;;;;481393;29;1455;-74
2023/05/25 00:55:18;;;;;;;8.20;4.55;;;;;;;;;;482623;29;1504;-73
2023/05/25 00:56:23;;;;;;;8.15;4.78;;;;;;;;;;489662;29;1309;-74
2023/05/25 00:57:26;;;;;;;8.80;4.45;;;;;;;;;;490930;29;1216;-74
2023/05/25 00:58:15;;;;;;;9.77;5.10;;;;;;;;;;480195;29;1529;-73
2023/05/25 00:59:11;;;;;;;9.25;4.80;;;;;;;;;;476336;29;1359;-74
2023/05/25 00:59:43;;;;;;;9.30;4.80;;;;;;;;;;475095;29;1350;-74
2023/05/25 01:00:23;;;;;;;9.25;5.00;;;;;;;;;;482024;29;1195;-73
2023/05/25 01:01:10;;;;;;;8.90;4.80;;;;;;;;;;482212;29;1014;-73
2023/05/25 01:02:51;;;;;;;9.80;4.88;;;;;;;;;;480935;29;1242;-74
2023/05/25 01:03:16;;;;;;;10.30;5.20;;;;;;;;;;489393;29;1263;-74
2023/05/25 01:03:52;;;;;;;12.00;5.38;;;;;;;;;;489508;29;1389;-73
2023/05/25 01:04:41;;;;;;;9.27;5.18;;;;;;;;;;483062;29;1346;-74
2023/05/25 01:05:11;;;;;;;;;;;;;;;;;;;;;
2023/05/25 01:05:52;;;;;;;;;;;;;;;;;;;;;
2023/05/25 01:06:38;;;;;;;10.80;5.30;;;;;;;;;;488447;29;1114;-74
2023/05/25 01:07:20;;;;;;;10.13;5.22;;;;;;;;;;488758;29;1492;-74
2023/05/25 01:08:04;;;;;;;10.93;5.38;;;;;;;;;;481283;29;1770;-74
2023/05/25 01:08:23;;;;;;;11.88;5.60;;;;;;;;;;480501;29;2011;-74
2023/05/25 01:09:21;;;;;;;;;;;;;;;;;;;;;
2023/05/25 01:09:43;;;;;;;8.13;4.95;;;;;;;;;;484777;29;1131;-74
2023/05/25 01:10:19;;;;;;;9.43;5.00;;;;;;;;;;482318;29;1317;-75
2023/05/25 01:11:33;;;;;;;9.38;5.05;;;;;;;;;;484251;29;1341;-73
2023/05/25 01:12:17;;;;;;;8.73;5.03;;;;;;;;;;486314;29;1502;-72
2023/05/25 01:12:41;;;;;;;9.63;5.00;;;;;;;;;;485115;29;1373;-73
2023/05/25 01:13:20;;;;;;;10.95;5.50;;;;;;;;;;485474;29;1616;-73
2023/05/25 01:13:40;;;;;;;10.35;5.22;;;;;;;;;;489748;29;1526;-74
2023/05/25 01:14:00;;;;;;;9.98;5.15;;;;;;;;;;490070;29;1669;-73
2023/05/25 01:14:23;;;;;;;10.30;5.38;;;;;;;;;;477471;29;1313;-74
2023/05/25 01:15:03;;;;;;;10.18;5.30;;;;;;;;;;483724;29;1213;-73
2023/05/25 01:15:25;;;;;;;9.93;5.05;;;;;;;;;;467994;29;1298;-73
2023/05/25 01:15:54;;;;;;;11.25;5.63;;;;;;;;;;465507;29;1842;-73
2023/05/25 01:16:50;;;;;;;8.88;5.00;;;;;;;;;;471068;29;1128;-73
2023/05/25 01:18:00;;;;;;;9.05;5.00;;;;;;;;;;477721;29;1228;-73
2023/05/25 01:19:14;;;;;;;11.23;5.35;;;;;;;;;;475763;29;1187;-71
2023/05/25 01:20:10;;;;;;;9.18;5.10;;;;;;;;;;485282;29;1602;-73
2023/05/25 01:21:12;;;;;;;10.50;5.10;;;;;;;;;;479503;28;1279;-73
2023/05/25 01:22:14;;;;;;;11.45;5.47;;;;;;;;;;493797;29;1767;-73
2023/05/25 01:23:29;;;;;;;;;;;;;;;;;;;;;
2023/05/25 01:24:29;;;;;;;11.27;5.40;;;;;;;;;;508349;28;974;-73
2023/05/25 01:25:10;;;;;;;9.27;5.30;;;;;;;;;;504616;28;1878;-72
2023/05/25 01:26:02;;;;;;;11.23;5.50;;;;;;;;;;502948;28;1213;-73
2023/05/25 01:26:25;;;;;;;10.98;5.53;;;;;;;;;;480416;28;1204;-73
2023/05/25 01:27:15;;;;;;;9.73;5.40;;;;;;;;;;496401;28;1380;-73
2023/05/25 01:27:38;;;;;;;9.57;5.32;;;;;;;;;;489830;28;1140;-73
2023/05/25 01:28:08;;;;;;;9.80;5.30;;;;;;;;;;487162;29;1143;-73
2023/05/25 01:28:39;;;;;;;12.02;5.80;;;;;;;;;;498319;28;2007;-73
2023/05/25 01:28:57;;;;;;;10.30;5.60;;;;;;;;;;502322;28;1373;-72
2023/05/25 01:29:17;;;;;;;10.02;5.60;;;;;;;;;;483445;28;1447;-73
2023/05/25 01:29:40;;;;;;;10.05;5.63;;;;;;;;;;498220;28;1332;-72
2023/05/25 01:30:09;;;;;;;10.20;5.63;;;;;;;;;;502406;28;1545;-73
2023/05/25 01:30:29;;;;;;;10.07;5.70;;;;;;;;;;497433;28;1509;-73
2023/05/25 01:31:00;;;;;;;10.57;5.80;;;;;;;;;;496169;28;1166;-73
2023/05/25 01:31:20;;;;;;;9.30;5.55;;;;;;;;;;487284;28;1252;-73
2023/05/25 01:31:46;;;;;;;9.20;5.57;;;;;;;;;;500227;28;1360;-73
2023/05/25 01:32:19;;;;;;;8.20;5.20;;;;;;;;;;499764;28;1236;-73
2023/05/25 01:32:45;;;;;;;8.38;5.50;;;;;;;;;;497955;28;1367;-73
2023/05/25 01:33:13;;;;;;;9.30;5.10;;;;;;;;;;500704;28;1500;-73
2023/05/25 01:33:33;;;;;;;12.27;5.72;;;;;;;;;;495000;28;1113;-72
2023/05/25 01:33:57;;;;;;;10.77;5.53;;;;;;;;;;500824;28;1442;-73
2023/05/25 01:34:16;;;;;;;10.35;5.40;;;;;;;;;;483091;28;1382;-74
2023/05/25 01:34:36;;;;;;;10.20;5.45;;;;;;;;;;498037;28;1297;-73
2023/05/25 01:35:12;;;;;;;10.43;5.60;;;;;;;;;;497995;28;1859;-72
2023/05/25 01:35:41;;;;;;;9.75;5.60;;;;;;;;;;497202;28;1324;-73
2023/05/25 01:36:11;;;;;;;10.93;5.80;;;;;;;;;;494088;28;1110;-73
2023/05/25 01:36:34;;;;;;;10.82;5.47;;;;;;;;;;498515;28;1305;-73
2023/05/25 01:37:00;;;;;;;10.48;5.70;;;;;;;;;;499182;28;1273;-73
2023/05/25 01:37:26;;;;;;;9.75;5.45;;;;;;;;;;488220;28;1245;-72
2023/05/25 01:37:51;;;;;;;10.20;5.63;;;;;;;;;;499258;28;1469;-72
2023/05/25 01:38:16;;;;;;;12.55;5.82;;;;;;;;;;491002;28;1397;-73
2023/05/25 01:38:46;;;;;;;11.13;5.80;;;;;;;;;;492463;28;1323;-72
2023/05/25 01:39:20;;;;;;;11.35;5.60;;;;;;;;;;497999;28;1466;-73
2023/05/25 01:39:40;;;;;;;9.18;5.38;;;;;;;;;;495884;28;1543;-72
2023/05/25 01:40:04;;;;;;;10.80;5.63;;;;;;;;;;500355;28;1536;-72
2023/05/25 01:40:33;;;;;;;11.63;5.78;;;;;;;;;;491726;28;1222;-73
2023/05/25 01:40:52;;;;;;;11.38;5.82;;;;;;;;;;493165;28;1348;-72
2023/05/25 01:41:16;;;;;;;11.25;6.00;;;;;;;;;;488393;28;1374;-72
2023/05/25 01:41:47;;;;;;;9.93;5.60;;;;;;;;;;501132;28;1377;-73
2023/05/25 01:42:35;;;;;;;9.70;5.60;;;;;;;;;;502354;28;1347;-72
2023/05/25 01:42:56;;;;;;;11.88;5.82;;;;;;;;;;505341;28;1295;-72
2023/05/25 01:43:15;;;;;;;10.63;5.95;;;;;;;;;;492293;28;1481;-72
2023/05/25 01:43:34;;;;;;;9.63;5.68;;;;;;;;;;496335;28;1493;-73
2023/05/25 01:44:14;;;;;;;11.68;5.68;;;;;;;;;;495440;28;1365;-73
2023/05/25 01:44:40;;;;;;;10.85;5.93;;;;;;;;;;498995;28;1622;-73
2023/05/25 01:45:04;;;;;;;10.85;5.78;;;;;;;;;;494895;28;1353;-72
2023/05/25 01:45:35;;;;;;;12.77;6.00;;;;;;;;;;491041;28;1143;-73
2023/05/25 01:46:05;;;;;;;11.32;5.95;;;;;;;;;;498406;28;1177;-73
2023/05/25 01:46:36;;;;;;;12.70;6.07;;;;;;;;;;485948;28;1292;-73
2023/05/25 01:47:03;;;;;;;11.85;5.80;;;;;;;;;;500475;28;1550;-73
2023/05/25 01:47:47;;;;;;;10.32;5.80;;;;;;;;;;487817;28;1188;-73
2023/05/25 01:48:40;;;;;;;10.27;5.53;;;;;;;;;;500619;28;1558;-74
2023/05/25 01:49:35;;;;;;;;;;;;;;;;;;;;;
2023/05/25 01:50:14;;;;;;;9.90;5.38;;;;;;;;;;497561;28;1349;-73
2023/05/25 01:50:45;;;;;;;9.52;5.57;;;;;;;;;;495054;28;1440;-73
2023/05/25 01:51:18;;;;;;;10.70;5.72;;;;;;;;;;500318;28;1384;-73
2023/05/25 01:51:58;;;;;;;10.05;5.72;;;;;;;;;;499354;28;1284;-73
2023/05/25 01:52:37;;;;;;;10.15;5.63;;;;;;;;;;479240;28;1372;-73
2023/05/25 01:53:05;;;;;;;10.63;5.70;;;;;;;;;;495081;29;1404;-73
2023/05/25 01:53:47;;;;;;;10.68;5.57;;;;;;;;;;481429;29;1484;-72
2023/05/25 01:54:24;;;;;;;9.88;5.80;;;;;;;;;;491242;29;961;-72
2023/05/25 01:55:26;;;;;;;;;;;;;;;;;;;;;
2023/05/25 01:56:23;;;;;;;9.43;5.32;;;;;;;;;;496661;28;1420;-73
2023/05/25 01:56:47;;;;;;;9.73;5.43;;;;;;;;;;490794;29;2077;-73
2023/05/25 01:57:51;;;;;;;9.77;5.53;;;;;;;;;;489909;29;1471;-73
2023/05/25 01:58:19;;;;;;;9.52;5.45;;;;;;;;;;490015;28;1349;-73
2023/05/25 01:58:58;;;;;;;10.20;5.63;;;;;;;;;;490472;28;1291;-71
2023/05/25 01:59:18;;;;;;;8.45;5.40;;;;;;;;;;484621;28;1319;-73
2023/05/25 01:59:41;;;;;;;10.18;6.03;;;;;;;;;;499823;28;1292;-73
2023/05/25 02:00:07;;;;;;;10.20;5.90;;;;;;;;;;496601;28;1418;-73
2023/05/25 02:00:42;;;;;;;11.02;6.13;;;;;;;;;;490710;28;1396;-73
2023/05/25 02:01:04;;;;;;;9.90;5.70;;;;;;;;;;494582;28;1316;-74
2023/05/25 02:01:22;;;;;;;10.13;5.68;;;;;;;;;;488350;28;1221;-72
2023/05/25 02:01:52;;;;;;;10.45;5.63;;;;;;;;;;496328;29;1286;-73
2023/05/25 02:02:20;;;;;;;11.10;5.80;;;;;;;;;;482690;29;1277;-73
2023/05/25 02:02:45;;;;;;;11.23;5.93;;;;;;;;;;492459;29;1477;-73
2023/05/25 02:03:22;;;;;;;9.63;5.70;;;;;;;;;;490277;29;1403;-73
2023/05/25 02:03:47;;;;;;;9.25;5.40;;;;;;;;;;489549;28;1052;-73
2023/05/25 02:04:10;;;;;;;9.20;5.85;;;;;;;;;;488254;28;1326;-73
2023/05/25 02:04:53;;;;;;;10.35;5.97;;;;;;;;;;495798;28;1363;-72
2023/05/25 02:05:14;;;;;;;12.55;6.03;;;;;;;;;;482028;28;1396;-74
2023/05/25 02:05:30;;;;;;;10.40;5.93;;;;;;;;;;492703;29;1193;-73
2023/05/25 02:06:18;;;;;;;9.73;5.47;;;;;;;;;;485737;29;1444;-73
2023/05/25 02:06:42;;;;;;;9.05;5.85;;;;;;;;;;493625;28;1721;-72
2023/05/25 02:07:05;;;;;;;9.32;5.40;;;;;;;;;;494139;29;1224;-73
2023/05/25 02:07:24;;;;;;;8.63;5.40;;;;;;;;;;486922;29;1313;-73
2023/05/25 02:07:43;;;;;;;9.40;5.55;;;;;;;;;;491361;28;1538;-73
2023/05/25 02:08:39;;;;;;;9.80;5.22;;;;;;;;;;493461;29;1479;-73
2023/05/25 02:08:55;;;;;;;10.80;5.65;;;;;;;;;;485616;29;1435;-73
2023/05/25 02:09:20;;;;;;;10.25;5.65;;;;;;;;;;471653;29;1306;-73
2023/05/25 02:09:50;;;;;;;11.75;5.80;;;;;;;;;;488327;28;935;-72
2023/05/25 02:10:17;;;;;;;10.55;5.70;;;;;;;;;;493581;28;1222;-73
2023/05/25 02:10:36;;;;;;;10.85;5.57;;;;;;;;;;499097;28;1377;-72
2023/05/25 02:10:57;;;;;;;8.25;5.22;;;;;;;;;;492185;29;1158;-73
2023/05/25 02:11:34;;;;;;;7.90;5.15;;;;;;;;;;485878;28;1523;-73
2023/05/25 02:12:45;;;;;;;;;;;;;;;;;;;;;
2023/05/25 02:13:07;;;;;;;9.95;5.35;;;;;;;;;;486326;28;1188;-73
2023/05/25 02:13:32;;;;;;;9.25;5.13;;;;;;;;;;485407;28;1274;-73
2023/05/25 02:13:53;;;;;;;10.38;5.20;;;;;;;;;;496955;28;1385;-73
2023/05/25 02:14:15;;;;;;;7.57;4.95;;;;;;;;;;487590;28;1310;-74
2023/05/25 02:14:34;;;;;;;8.55;5.20;;;;;;;;;;487275;28;1115;-73
2023/05/25 02:15:14;;;;;;;9.50;5.15;;;;;;;;;;495165;28;1309;-72
2023/05/25 02:15:36;;;;;;;10.93;5.30;;;;;;;;;;488935;29;1332;-73
2023/05/25 02:16:06;;;;;;;8.73;5.22;;;;;;;;;;500518;28;1954;-72
2023/05/25 02:16:37;;;;;;;11.02;5.78;;;;;;;;;;483634;28;1350;-73
2023/05/25 02:17:00;;;;;;;10.35;5.60;;;;;;;;;;490168;28;1149;-72
2023/05/25 02:17:30;;;;;;;10.57;5.55;;;;;;;;;;482968;28;1410;-73
2023/05/25 02:18:04;;;;;;;9.20;5.40;;;;;;;;;;492069;28;976;-73
2023/05/25 02:18:23;;;;;;;10.75;5.43;;;;;;;;;;482293;28;1023;-73
2023/05/25 02:18:50;;;;;;;9.43;5.53;;;;;;;;;;499222;28;1280;-73
2023/05/25 02:19:24;;;;;;;9.75;5.57;;;;;;;;;;487419;28;1863;-73
2023/05/25 02:19:43;;;;;;;10.02;5.53;;;;;;;;;;497273;28;1086;-73
2023/05/25 02:20:07;;;;;;;9.82;5.65;;;;;;;;;;495393;28;1317;-73
2023/05/25 02:20:27;;;;;;;10.55;5.82;;;;;;;;;;485904;28;1491;-72
2023/05/25 02:20:52;;;;;;;11.27;6.00;;;;;;;;;;494491;28;1204;-72
2023/05/25 02:21:15;;;;;;;11.77;5.90;;;;;;;;;;483628;28;1325;-73
2023/05/25 02:21:35;;;;;;;10.25;5.90;;;;;;;;;;486252;29;1027;-73
2023/05/25 02:21:59;;;;;;;9.25;5.60;;;;;;;;;;492118;29;945;-74
2023/05/25 02:22:15;;;;;;;8.93;5.20;;;;;;;;;;479908;28;1175;-73
2023/05/25 02:22:33;;;;;;;9.57;5.35;;;;;;;;;;493436;28;1043;-73
2023/05/25 02:22:55;;;;;;;10.40;6.00;;;;;;;;;;493893;28;1230;-73
2023/05/25 02:23:13;;;;;;;10.32;6.10;;;;;;;;;;485579;28;1228;-74
2023/05/25 02:23:34;;;;;;;11.95;5.90;;;;;;;;;;489777;29;1171;-73
2023/05/25 02:23:53;;;;;;;11.50;5.80;;;;;;;;;;496048;28;1550;-74
2023/05/25 02:24:15;;;;;;;10.90;5.80;;;;;;;;;;491116;28;1134;-73
2023/05/25 02:24:36;;;;;;;11.15;6.15;;;;;;;;;;492527;28;1101;-73
2023/05/25 02:25:06;;;;;;;10.93;6.10;;;;;;;;;;498011;28;977;-73
2023/05/25 02:25:30;;;;;;;9.38;5.65;;;;;;;;;;490923;28;1642;-73
2023/05/25 02:25:45;;;;;;;10.60;6.00;;;;;;;;;;491576;28;1213;-73
2023/05/25 02:26:46;;;;;;;9.27;5.88;;;;;;;;;;490355;29;974;-73
2023/05/25 02:26:47;;;;;;;9.45;5.78;;;;;;;;;;490530;28;1161;-74
2023/05/25 02:27:22;;;;;;;8.68;5.82;;;;;;;;;;498460;28;1839;-73
2023/05/25 02:27:38;;;;;;;8.13;5.25;;;;;;;;;;496699;28;1233;-73
2023/05/25 02:27:54;;;;;;;7.93;5.28;;;;;;;;;;501725;28;1716;-73
2023/05/25 02:28:10;;;;;;;10.05;5.43;;;;;;;;;;489529;28;944;-73
2023/05/25 02:28:26;;;;;;;11.40;5.70;;;;;;;;;;498830;28;2065;-74
2023/05/25 02:28:42;;;;;;;9.93;5.80;;;;;;;;;;499947;28;1271;-73
2023/05/25 02:29:00;;;;;;;8.30;5.55;;;;;;;;;;500843;28;1225;-75
2023/05/25 02:29:17;;;;;;;8.52;5.35;;;;;;;;;;488247;28;1246;-73
2023/05/25 02:29:35;;;;;;;8.90;5.50;;;;;;;;;;499750;28;1069;-73
2023/05/25 02:30:13;;;;;;;8.73;5.60;;;;;;;;;;496707;28;1436;-73
2023/05/25 02:30:32;;;;;;;10.55;5.40;;;;;;;;;;495771;28;1366;-73
2023/05/25 02:31:09;;;;;;;;;;;;;;;;;;;;;
2023/05/25 02:31:35;;;;;;;9.88;5.47;;;;;;;;;;502459;28;1332;-73
2023/05/25 02:31:51;;;;;;;7.88;5.35;;;;;;;;;;499634;28;1225;-73
2023/05/25 02:32:08;;;;;;;7.40;5.40;;;;;;;;;;494245;28;899;-73
2023/05/25 02:33:10;;;;;;;9.40;5.40;;;;;;;;;;497705;28;1299;-73
2023/05/25 02:33:26;;;;;;;9.07;5.00;;;;;;;;;;491130;29;1263;-73
2023/05/25 02:33:42;;;;;;;9.15;5.20;;;;;;;;;;495746;29;1351;-72
2023/05/25 02:33:58;;;;;;;10.02;5.40;;;;;;;;;;492156;28;1610;-74
2023/05/25 02:34:37;;;;;;;10.75;5.40;;;;;;;;;;486483;28;1130;-72
2023/05/25 02:34:56;;;;;;;9.15;5.15;;;;;;;;;;496276;28;1479;-73
2023/05/25 02:35:18;;;;;;;10.10;5.40;;;;;;;;;;489165;28;979;-74
2023/05/25 02:35:34;;;;;;;10.25;5.80;;;;;;;;;;489184;28;1394;-73
2023/05/25 02:35:53;;;;;;;10.82;5.65;;;;;;;;;;496235;28;1492;-74
2023/05/25 02:36:18;;;;;;;11.27;5.85;;;;;;;;;;482395;28;1247;-73
2023/05/25 02:36:49;;;;;;;10.48;5.90;;;;;;;;;;499615;28;996;-73
2023/05/25 02:37:14;;;;;;;9.63;5.63;;;;;;;;;;495899;28;1417;-73
2023/05/25 02:37:40;;;;;;;10.98;5.80;;;;;;;;;;493546;28;1369;-72
2023/05/25 02:38:02;;;;;;;9.57;5.45;;;;;;;;;;495861;28;1142;-73
2023/05/25 02:38:20;;;;;;;9.38;5.75;;;;;;;;;;484020;28;1210;-73
2023/05/25 02:38:39;;;;;;;8.70;5.75;;;;;;;;;;492470;28;1609;-73
2023/05/25 02:38:58;;;;;;;11.63;6.00;;;;;;;;;;498254;28;1430;-73
2023/05/25 02:39:41;;;;;;;10.00;5.70;;;;;;;;;;487588;28;1293;-73
2023/05/25 02:39:56;;;;;;;9.40;6.03;;;;;;;;;;497662;28;1310;-73
2023/05/25 02:40:16;;;;;;;10.57;6.25;;;;;;;;;;488851;28;1462;-73
2023/05/25 02:40:31;;;;;;;10.30;6.00;;;;;;;;;;501042;28;1333;-74
2023/05/25 02:40:50;;;;;;;11.00;6.00;;;;;;;;;;501458;28;1247;-73
2023/05/25 02:41:33;;;;;;;11.02;6.00;;;;;;;;;;487834;28;1454;-74
2023/05/25 02:41:55;;;;;;;8.50;5.85;;;;;;;;;;497525;28;1256;-73
2023/05/25 02:42:11;;;;;;;8.23;5.68;;;;;;;;;;487057;28;1407;-73
2023/05/25 02:42:32;;;;;;;8.57;5.63;;;;;;;;;;503892;28;1410;-73
2023/05/25 02:42:51;;;;;;;8.77;5.78;;;;;;;;;;497147;28;1493;-73
2023/05/25 02:43:25;;;;;;;10.57;6.00;;;;;;;;;;489539;28;1406;-73
2023/05/25 02:44:05;;;;;;;9.15;5.60;;;;;;;;;;497851;28;1180;-72
2023/05/25 02:44:21;;;;;;;8.18;5.60;;;;;;;;;;490799;28;1209;-73
2023/05/25 02:44:47;;;;;;;9.27;5.60;;;;;;;;;;495874;28;1226;-73
2023/05/25 02:45:29;;;;;;;9.38;5.82;;;;;;;;;;505160;28;1241;-73
2023/05/25 02:45:45;;;;;;;10.15;5.90;;;;;;;;;;495538;29;1474;-73
2023/05/25 02:46:10;;;;;;;9.02;5.70;;;;;;;;;;498866;28;1506;-73
2023/05/25 02:46:28;;;;;;;8.40;5.95;;;;;;;;;;492273;28;1256;-73
2023/05/25 02:47:27;;;;;;;7.78;5.40;;;;;;;;;;488109;28;1439;-72
2023/05/25 02:47:58;;;;;;;9.40;5.60;;;;;;;;;;486148;29;1473;-73
2023/05/25 02:48:20;;;;;;;10.38;5.60;;;;;;;;;;479672;29;1478;-73
2023/05/25 02:49:09;;;;;;;8.70;5.50;;;;;;;;;;493497;28;2007;-73
2023/05/25 02:49:34;;;;;;;9.52;5.80;;;;;;;;;;490470;29;1737;-73
2023/05/25 02:49:55;;;;;;;8.48;5.55;;;;;;;;;;482399;29;1318;-72
2023/05/25 02:51:15;;;;;;;9.52;5.60;;;;;;;;;;476178;29;1355;-73
2023/05/25 02:51:18;;;;;;;9.82;5.57;;;;;;;;;;485594;29;1375;-73
2023/05/25 02:51:33;;;;;;;7.97;5.40;;;;;;;;;;492865;29;1147;-73
2023/05/25 02:52:35;;;;;;;8.20;5.23;;;;;;;;;;495738;29;1405;-72
2023/05/25 02:52:51;;;;;;;10.77;5.72;;;;;;;;;;480310;29;1307;-73
2023/05/25 02:53:29;;;;;;;;;;;;;;;;;;;;;
2023/05/25 02:54:00;;;;;;;;;;;;;;;;;;;;;
2023/05/25 02:54:30;;;;;;;10.60;5.80;;;;;;;;;;469048;29;1140;-72
2023/05/25 02:54:49;;;;;;;9.20;5.53;;;;;;;;;;485191;29;1302;-73
2023/05/25 02:55:17;;;;;;;9.02;5.60;;;;;;;;;;486913;29;1590;-74
2023/05/25 02:55:33;;;;;;;9.68;5.80;;;;;;;;;;490671;29;1318;-73
2023/05/25 02:55:51;;;;;;;9.43;5.75;;;;;;;;;;485998;29;1172;-72
2023/05/25 02:56:11;;;;;;;9.23;5.70;;;;;;;;;;482482;29;1303;-73
2023/05/25 02:56:50;;;;;;;8.75;5.50;;;;;;;;;;489099;29;1407;-72
2023/05/25 02:57:16;;;;;;;8.90;5.43;;;;;;;;;;481443;29;1254;-72
2023/05/25 02:57:32;;;;;;;9.20;5.90;;;;;;;;;;491392;29;1313;-73
2023/05/25 02:58:40;;;;;;;9.80;5.80;;;;;;;;;;485159;29;1347;-72
2023/05/25 02:58:48;;;;;;;11.57;5.80;;;;;;;;;;486865;29;1189;-73
2023/05/25 02:59:38;;;;;;;8.60;5.55;;;;;;;;;;484983;29;1229;-73
2023/05/25 03:00:00;;;;;;;10.18;5.60;;;;;;;;;;484094;29;1366;-72
2023/05/25 03:00:32;;;;;;;;;;;;;;;;;;;;;
2023/05/25 03:00:58;;;;;;;9.45;5.57;;;;;;;;;;482311;29;1196;-73
2023/05/25 03:01:41;;;;;;;9.27;5.68;;;;;;;;;;479742;29;1487;-73
2023/05/25 03:01:59;;;;;;;9.18;5.95;;;;;;;;;;490415;29;1192;-72
2023/05/25 03:02:17;;;;;;;9.82;5.90;;;;;;;;;;472811;29;1231;-72
2023/05/25 03:02:52;;;;;;;11.02;5.65;;;;;;;;;;487408;29;1377;-73
2023/05/25 03:03:50;;;;;;;11.18;6.20;;;;;;;;;;477772;29;1652;-73
2023/05/25 03:04:12;;;;;;;7.72;5.40;;;;;;;;;;484974;29;1519;-73
2023/05/25 03:04:33;;;;;;;8.38;5.40;;;;;;;;;;487897;29;932;-73
2023/05/25 03:04:52;;;;;;;11.18;5.82;;;;;;;;;;487236;29;1526;-72
2023/05/25 03:05:11;;;;;;;10.55;5.97;;;;;;;;;;476264;29;1367;-73
2023/05/25 03:06:29;;;;;;;10.52;6.00;;;;;;;;;;476364;30;1629;-72
2023/05/25 03:06:45;;;;;;;11.30;5.78;;;;;;;;;;480601;29;1366;-73
2023/05/25 03:07:13;;;;;;;11.38;5.60;;;;;;;;;;486418;29;1388;-72
2023/05/25 03:07:35;;;;;;;9.63;5.57;;;;;;;;;;485743;29;1258;-73
2023/05/25 03:07:58;;;;;;;9.25;5.75;;;;;;;;;;489657;29;1398;-72
2023/05/25 03:08:24;;;;;;;9.88;5.55;;;;;;;;;;475612;29;2179;-71
2023/05/25 03:08:40;;;;;;;11.88;5.88;;;;;;;;;;484614;29;1541;-73
2023/05/25 03:09:03;;;;;;;11.68;5.88;;;;;;;;;;480369;29;1311;-72
2023/05/25 03:09:28;;;;;;;9.48;5.45;;;;;;;;;;476253;29;1190;-72
2023/05/25 03:10:04;;;;;;;9.50;5.68;;;;;;;;;;486944;29;1483;-72
2023/05/25 03:10:26;;;;;;;8.98;5.78;;;;;;;;;;468789;29;1289;-72
2023/05/25 03:10:51;;;;;;;11.48;5.95;;;;;;;;;;482685;29;1402;-73
2023/05/25 03:11:12;;;;;;;10.85;5.90;;;;;;;;;;481002;29;1185;-72
2023/05/25 03:11:34;;;;;;;9.65;5.85;;;;;;;;;;480673;29;1237;-74
2023/05/25 03:12:06;;;;;;;9.60;5.70;;;;;;;;;;487790;29;1378;-72
2023/05/25 03:12:25;;;;;;;10.27;5.90;;;;;;;;;;477999;29;1125;-72
2023/05/25 03:12:53;;;;;;;;;;;;;;;;;;;;;
2023/05/25 03:13:15;;;;;;;10.30;5.60;;;;;;;;;;476823;29;876;-73
2023/05/25 03:13:50;;;;;;;11.43;6.00;;;;;;;;;;487064;29;1268;-73
2023/05/25 03:14:08;;;;;;;9.10;5.90;;;;;;;;;;479912;29;1469;-73
2023/05/25 03:14:39;;;;;;;8.55;5.75;;;;;;;;;;475136;29;1240;-74
2023/05/25 03:15:09;;;;;;;10.32;5.80;;;;;;;;;;487514;29;1655;-73
2023/05/25 03:15:34;;;;;;;8.75;5.70;;;;;;;;;;474701;29;1247;-73
2023/05/25 03:15:56;;;;;;;9.48;5.65;;;;;;;;;;485797;29;1868;-72
2023/05/25 03:16:12;;;;;;;11.10;6.07;;;;;;;;;;477373;29;1079;-73